• Join FlightAware (Why Join?)
  • Login
  • US Flag 
02:55PM EDT


 

Airport Tracker/Info


-or-


 

Live Flight TrackerFlight Track Log ✈ UPS2998 ✈ 10-May-2013 ✈ KSDF - PANC

Flight Track Log - Related Links

Times and Time Zones

All times are in EDT time to prevent confusion due to time zone crossing. See the UPS2998 flight status page for this flight to view local times or setup timezone preferences in your user account.

Time Position Orientation Groundspeed Altitude Reporting Facility
EDT Latitude Longitude Course Direction KTS MPH feet Rate Location/Type
04:46PM 38.1580 -85.7390 159° South 177 204 1,200  Level FlightAware
04:46PM 38.1370 -85.7330 167° South 166 191 2,700 2,460 Climbing FlightAware
04:47PM 38.1060 -85.7340 181° South 178 205 3,900 1,500 Climbing FlightAware
04:47PM 38.0950 -85.7390 200° South 191 220 4,100 600 Climbing FlightAware
04:48PM 38.0840 -85.7510 221° Southwest 221 254 4,200 780 Climbing FlightAware
04:48PM 38.0770 -85.7710 246° West 243 280 4,500 2,520 Climbing FlightAware
04:48PM 38.0770 -85.8180 270° West 246 283 6,300 3,120 Climbing FlightAware
04:49PM 38.0760 -85.8630 268° West 251 289 7,900 3,000 Climbing FlightAware
04:49PM 38.0900 -85.9040 293° West 270 311 9,300 2,520 Climbing FlightAware
04:50PM 38.1070 -85.9180 327° Northwest 286 329 9,800 1,260 Climbing FlightAware
04:50PM 38.1680 -85.9390 345° North 330 380 10,600 1,020 Climbing FlightAware
04:51PM 38.2320 -85.9600 346° North 383 441 11,300 1,020 Climbing FlightAware
04:52PM 38.3050 -85.9830 346° North 428 493 12,000 1,860 Climbing FlightAware
04:53PM 38.3990 -85.9940 355° North 444 511 14,000 2,460 Climbing FlightAware
04:53PM 38.4780 -85.9970 358° North 455 524 15,500 2,400 Climbing FlightAware
04:54PM 38.5750 -86.0030 357° North 460 529 17,400 2,280 Climbing FlightAware
04:55PM 38.6610 -86.0080 357° North 473 544 18,800 2,040 Climbing FlightAware
04:55PM 38.7630 -86.0180 356° North 479 551 20,300 1,860 Climbing FlightAware
04:56PM 38.8290 -86.0460 342° North 480 552 21,300 1,800 Climbing FlightAware
04:57PM 38.9280 -86.1030 336° Northwest 490 564 22,700 1,080 Climbing FlightAware
04:58PM 39.0360 -86.1660 336° Northwest 492 566 23,100 240 Climbing FlightAware
04:58PM 39.1060 -86.2080 335° Northwest 492 566 23,100 2,220 Level FlightAware
04:59PM 39.2290 -86.2770 337° Northwest 500 575 26,500 3,420 Climbing FlightAware
05:00PM 39.2940 -86.3150 336° Northwest 496 571 27,700 2,100 Climbing FlightAware
05:00PM 39.3990 -86.3780 335° Northwest 494 568 29,300 1,740 Climbing FlightAware
05:01PM 39.4950 -86.4330 336° Northwest 495 570 30,500 1,620 Climbing FlightAware
05:02PM 39.5780 -86.4820 336° Northwest 492 566 31,600 1,500 Climbing FlightAware
05:03PM 39.6710 -86.5370 336° Northwest 491 565 32,700 1,080 Climbing FlightAware
05:03PM 39.7550 -86.5870 335° Northwest 497 572 33,200 660 Climbing FlightAware
05:04PM 39.8380 -86.6360 336° Northwest 492 566 33,600 600 Climbing FlightAware
05:05PM 39.9180 -86.6840 335° Northwest 489 563 34,000 240 Climbing FlightAware
05:05PM 40.0070 -86.7430 333° Northwest 484 557 34,000  Level FlightAware
05:06PM 40.0790 -86.8050 327° Northwest 475 547 34,000  Level FlightAware
05:07PM 40.1550 -86.8720 326° Northwest 473 544 34,000  Level FlightAware
05:08PM 40.2570 -86.9780 322° Northwest 470 541 34,000  Level FlightAware
05:09PM 40.3530 -87.0780 322° Northwest 475 547 34,000  Level FlightAware
05:09PM 40.4310 -87.1580 322° Northwest 470 541 34,000  Level FlightAware
05:10PM 40.4860 -87.2140 322° Northwest 464 534 34,000  Level FlightAware
05:11PM 40.5830 -87.3190 321° Northwest 464 534 34,000  Level FlightAware
05:12PM 40.6670 -87.4070 322° Northwest 465 535 34,000  Level FlightAware
05:12PM 40.7330 -87.4770 321° Northwest 467 537 34,000  Level FlightAware
05:13PM 40.8010 -87.5490 321° Northwest 469 540 34,000  Level FlightAware
05:14PM 40.8760 -87.6280 321° Northwest 470 541 34,000  Level FlightAware
05:14PM 40.9440 -87.7020 321° Northwest 472 543 34,000  Level FlightAware
05:15PM 41.0100 -87.7730 321° Northwest 473 544 34,000  Level FlightAware
05:16PM 41.0880 -87.8580 321° Northwest 474 545 34,000  Level FlightAware
05:17PM 41.1530 -87.9260 322° Northwest 474 545 34,000  Level FlightAware
05:17PM 41.2210 -87.9990 321° Northwest 472 543 34,000  Level FlightAware
05:18PM 41.2940 -88.0800 320° Northwest 472 543 34,000  Level FlightAware
05:19PM 41.3650 -88.1570 321° Northwest 474 545 34,000  Level FlightAware
05:19PM 41.4420 -88.2400 321° Northwest 472 543 34,000  Level FlightAware
05:20PM 41.5100 -88.3140 321° Northwest 472 543 34,000  Level FlightAware
05:21PM 41.5850 -88.3970 320° Northwest 473 544 34,000  Level FlightAware
05:21PM 41.6550 -88.4730 321° Northwest 471 542 34,000  Level FlightAware
05:22PM 41.7200 -88.5440 321° Northwest 471 542 34,000  Level FlightAware
05:23PM 41.7940 -88.6280 320° Northwest 471 542 34,000 60 Level FlightAware
05:24PM 41.8640 -88.7040 321° Northwest 471 542 34,100 60 Climbing FlightAware
05:24PM 41.9340 -88.7820 320° Northwest 470 541 34,100 -120 Level FlightAware
05:25PM 42.0050 -88.8630 320° Northwest 468 539 34,000 -120 Descending FlightAware
05:26PM 42.0730 -88.9390 320° Northwest 467 537 34,000  Level FlightAware
05:26PM 42.1500 -89.0250 320° Northwest 466 536 34,000  Level FlightAware
05:27PM 42.2140 -89.0970 320° Northwest 465 535 34,000  Level FlightAware
05:28PM 42.2830 -89.1760 320° Northwest 465 535 34,000  Level FlightAware
05:28PM 42.3530 -89.2540 321° Northwest 464 534 34,000  Level FlightAware
05:29PM 42.4170 -89.3270 320° Northwest 464 534 34,000  Level FlightAware
05:30PM 42.4930 -89.4130 320° Northwest 465 535 34,000  Level FlightAware
05:31PM 42.5620 -89.4920 320° Northwest 469 540 34,000  Level FlightAware
05:31PM 42.6290 -89.5700 319° Northwest 471 542 34,000 60 Level FlightAware
05:32PM 42.7000 -89.6510 320° Northwest 471 542 34,100  Climbing FlightAware
05:33PM 42.7670 -89.7280 320° Northwest 473 544 34,000  Descending FlightAware
05:33PM 42.8430 -89.8160 320° Northwest 468 539 34,100  Climbing FlightAware
05:34PM 42.9110 -89.8950 320° Northwest 468 539 34,000 -120 Descending FlightAware
05:35PM 42.9830 -89.9790 320° Northwest 467 537 34,000  Level FlightAware
05:35PM 43.0360 -90.0430 319° Northwest 464 534 34,000  Level FlightAware
05:36PM 43.1120 -90.1380 318° Northwest 462 532 34,000  Level FlightAware
05:37PM 43.1790 -90.2220 318° Northwest 460 529 34,000  Level FlightAware
05:38PM 43.2420 -90.2990 318° Northwest 460 529 34,000  Level FlightAware
05:38PM 43.3010 -90.3740 317° Northwest 458 527 34,000  Level FlightAware
05:39PM 43.3730 -90.4640 318° Northwest 457 526 34,000  Level FlightAware
05:40PM 43.4340 -90.5430 317° Northwest 454 522 34,000  Level FlightAware
05:40PM 43.5040 -90.6310 318° Northwest 453 521 34,000  Level FlightAware
05:41PM 43.5710 -90.7150 318° Northwest 454 522 34,000  Level FlightAware
05:42PM 43.6420 -90.8050 317° Northwest 455 524 34,000  Level FlightAware
05:42PM 43.7010 -90.8800 317° Northwest 454 522 34,000  Level FlightAware
05:43PM 43.7660 -90.9640 317° Northwest 455 524 34,000  Level FlightAware
05:44PM 43.8330 -91.0510 317° Northwest 458 527 34,000  Level FlightAware
05:45PM 43.8960 -91.1320 317° Northwest 459 528 34,000 60 Level FlightAware
05:45PM 43.9660 -91.2240 317° Northwest 459 528 34,100 60 Climbing FlightAware
05:46PM 44.0290 -91.3050 317° Northwest 460 529 34,100 -120 Level FlightAware
05:47PM 44.0910 -91.3860 317° Northwest 461 531 34,000  Descending FlightAware
05:47PM 44.1600 -91.4750 317° Northwest 459 528 34,100 60 Climbing FlightAware
05:48PM 44.2220 -91.5560 317° Northwest 454 522 34,100 -120 Level FlightAware
05:49PM 44.2820 -91.6350 317° Northwest 449 517 34,000 -120 Descending FlightAware
05:49PM 44.3510 -91.7270 316° Northwest 444 511 34,000  Level FlightAware
05:50PM 44.4120 -91.8080 317° Northwest 444 511 34,000  Level FlightAware
05:51PM 44.4770 -91.8930 317° Northwest 447 514 34,000  Level FlightAware
05:52PM 44.5370 -91.9730 316° Northwest 449 517 34,000 60 Level FlightAware
05:52PM 44.6060 -92.0650 317° Northwest 449 517 34,100 60 Climbing FlightAware
05:53PM 44.6660 -92.1460 316° Northwest 450 518 34,100  Level FlightAware
05:54PM 44.7270 -92.2290 316° Northwest 449 517 34,100 -120 Level FlightAware
05:54PM 44.7940 -92.3170 317° Northwest 445 512 34,000 -120 Descending FlightAware
05:55PM 44.8540 -92.3990 316° Northwest 443 510 34,000  Level FlightAware
05:56PM 44.9160 -92.4830 316° Northwest 441 507 34,000  Level FlightAware
05:56PM 44.9740 -92.5630 316° Northwest 439 505 34,000  Level FlightAware
05:57PM 45.0310 -92.6410 316° Northwest 437 503 34,000  Level FlightAware
05:58PM 45.0940 -92.7260 316° Northwest 437 503 34,000  Level FlightAware
05:59PM 45.1590 -92.8160 316° Northwest 437 503 34,000  Level FlightAware
05:59PM 45.2150 -92.8920 316° Northwest 438 504 34,000  Level FlightAware
06:00PM 45.2740 -92.9740 316° Northwest 439 505 34,000 60 Level FlightAware
06:01PM 45.3480 -93.0770 316° Northwest 439 505 34,100 360 Climbing FlightAware
06:01PM 45.4030 -93.1540 316° Northwest 435 501 34,600 1,020 Climbing FlightAware
06:02PM 45.4570 -93.2290 316° Northwest 432 497 35,500 960 Climbing FlightAware
06:03PM 45.5250 -93.3250 315° West 434 499 36,000 300 Climbing FlightAware
06:03PM 45.5830 -93.4060 316° Northwest 431 496 36,000  Level FlightAware
06:04PM 45.6490 -93.4980 316° Northwest 432 497 36,000  Level FlightAware
06:05PM 45.7030 -93.5760 315° West 433 498 36,000  Level FlightAware
06:06PM 45.7690 -93.6690 316° Northwest 432 497 36,000  Level FlightAware
06:06PM 45.8260 -93.7490 316° Northwest 432 497 36,000  Level FlightAware
06:07PM 45.8830 -93.8320 315° West 432 497 36,000  Level FlightAware
06:08PM 45.9440 -93.9190 315° West 432 497 36,000  Level FlightAware
06:08PM 46.0020 -94.0000 316° Northwest 431 496 36,000  Level FlightAware
06:09PM 46.0560 -94.0830 313° West 430 495 36,000  Level FlightAware
06:10PM 46.1180 -94.1810 312° West 430 495 36,000  Level FlightAware
06:10PM 46.1720 -94.2650 313° West 430 495 36,000  Level FlightAware
06:11PM 46.2330 -94.3590 313° West 428 493 36,000  Level FlightAware
06:12PM 46.2850 -94.4410 313° West 428 493 36,000  Level FlightAware
06:13PM 46.3480 -94.5380 313° West 428 493 36,000  Level FlightAware
06:13PM 46.4020 -94.6230 313° West 430 495 36,000  Level FlightAware
06:14PM 46.4550 -94.7070 313° West 428 493 36,000  Level FlightAware
06:15PM 46.5140 -94.8000 313° West 428 493 36,000  Level FlightAware
06:15PM 46.5680 -94.8850 313° West 426 490 36,000 60 Level FlightAware
06:16PM 46.6280 -94.9830 312° West 424 488 36,100  Climbing FlightAware
06:17PM 46.6810 -95.0670 313° West 422 486 36,000 -120 Descending FlightAware
06:17PM 46.7340 -95.1510 313° West 421 484 36,000  Level FlightAware
06:18PM 46.7910 -95.2430 312° West 421 484 36,000  Level FlightAware
06:19PM 46.8400 -95.3210 313° West 420 483 36,000  Level FlightAware
06:20PM 46.8900 -95.4060 311° West 420 483 36,000  Level FlightAware
06:20PM 46.9550 -95.5080 313° West 417 480 36,000  Level FlightAware
06:21PM 47.0070 -95.5920 312° West 415 478 36,000  Level FlightAware
06:22PM 47.0590 -95.6760 312° West 416 479 36,000  Level FlightAware
06:22PM 47.1130 -95.7670 311° West 419 482 36,000  Level FlightAware
06:23PM 47.1670 -95.8550 312° West 423 487 36,000  Level FlightAware
06:24PM 47.2270 -95.9540 312° West 425 489 36,000  Level FlightAware
06:24PM 47.2800 -96.0430 311° West 429 494 36,000 60 Level FlightAware
06:25PM 47.3510 -96.1600 312° West 430 495 36,100 60 Climbing FlightAware
06:26PM 47.3950 -96.2350 311° West 430 495 36,100 -120 Level FlightAware
06:27PM 47.4630 -96.3470 312° West 422 486 36,000 -120 Descending FlightAware
06:28PM 47.5200 -96.4440 311° West 419 482 36,000  Level FlightAware
06:28PM 47.5710 -96.5280 312° West 416 479 36,000  Level FlightAware
06:29PM 47.6260 -96.6210 311° West 413 475 36,000  Level FlightAware
06:30PM 47.6720 -96.7000 311° West 409 471 36,000  Level FlightAware
06:30PM 47.7250 -96.7910 311° West 410 472 36,000  Level FlightAware
06:31PM 47.7840 -96.8910 311° West 415 478 36,000  Level FlightAware
06:32PM 47.8360 -96.9780 312° West 421 484 36,000  Level FlightAware
06:32PM 47.8870 -97.0660 311° West 424 488 36,000 60 Level FlightAware
06:33PM 47.9420 -97.1610 311° West 424 488 36,100 60 Climbing FlightAware
06:34PM 47.9900 -97.2560 307° West 420 483 36,100 -120 Level FlightAware
06:35PM 48.0440 -97.3630 307° West 418 481 36,000 -120 Descending FlightAware
06:35PM 48.0890 -97.4560 306° West 417 480 36,000  Level FlightAware
06:36PM 48.1400 -97.5580 307° West 417 480 36,000  Level FlightAware
06:37PM 48.1840 -97.6520 305° West 416 479 36,000  Level FlightAware
06:37PM 48.2370 -97.7590 307° West 417 480 36,000  Level FlightAware
06:38PM 48.2760 -97.8380 307° West 418 481 36,000 60 Level FlightAware
06:39PM 48.3280 -97.9460 306° West 417 480 36,100  Climbing FlightAware
06:39PM 48.3770 -98.0490 306° West 418 481 36,000 -120 Descending FlightAware
06:40PM 48.4230 -98.1440 306° West 418 481 36,000  Level FlightAware
06:41PM 48.4680 -98.2380 306° West 417 480 36,000 60 Level FlightAware
06:42PM 48.5190 -98.3470 305° West 415 478 36,100  Climbing FlightAware
06:42PM 48.5650 -98.4410 307° West 412 474 36,000 -120 Descending FlightAware
06:43PM 48.6130 -98.5440 305° West 411 473 36,000  Level FlightAware
06:44PM 48.6560 -98.6370 305° West 408 470 36,000  Level FlightAware
06:44PM 48.7000 -98.7300 306° West 404 465 36,000  Level FlightAware
06:45PM 48.7490 -98.8360 305° West 402 463 36,000  Level FlightAware
06:46PM 48.7920 -98.9280 305° West 401 461 36,000  Level FlightAware
06:46PM 48.8390 -99.0260 306° West 400 460 36,000  Level FlightAware
06:47PM 48.8820 -99.1210 305° West 401 461 36,000  Level FlightAware
06:48PM 48.9310 -99.2280 305° West 406 467 36,000  Level FlightAware
06:49PM 48.9740 -99.3220 305° West 411 473 36,000  Level FlightAware
06:49PM 49.0180 -99.4150 306° West 414 476 36,000  Level FlightAware
06:50PM 49.0660 -99.5230 304° West 413 475 36,000  Level FlightAware
06:50PM 49.0960 -99.5880 305° West 411 473 36,000  Level FlightAware
06:51PM 49.1500 -99.7080 305° West 408 470 36,000  Level FlightAware
06:52PM 49.2030 -99.8230 305° West 406 467 36,000  Level FlightAware
06:53PM 49.2440 -99.9160 304° West 404 465 36,000  Level FlightAware
06:53PM 49.2890 -100.0210 303° West 403 464 36,000  Level FlightAware
06:54PM 49.3320 -100.1150 305° West 401 461 36,000  Level FlightAware
06:55PM 49.3800 -100.2220 305° West 400 460 36,000  Level FlightAware
06:56PM 49.4220 -100.3160 305° West 401 461 36,000  Level FlightAware
06:56PM 49.4640 -100.4100 305° West 402 463 36,000  Level FlightAware
06:57PM 49.5090 -100.5150 303° West 404 465 36,000  Level FlightAware
06:58PM 49.5510 -100.6130 303° West 404 465 36,000  Level FlightAware
06:58PM 49.5930 -100.7080 304° West 404 465 36,000  Level FlightAware
06:59PM 49.6400 -100.8160 304° West 404 465 36,000  Level FlightAware
07:00PM 49.6820 -100.9120 304° West 405 466 36,000  Level FlightAware
07:00PM 49.7230 -101.0080 303° West 405 466 36,000  Level FlightAware
07:01PM 49.7690 -101.1140 304° West 405 466 36,000  Level FlightAware
07:02PM 49.8100 -101.2110 303° West 404 465 36,000  Level FlightAware
07:03PM 49.8580 -101.3220 304° West 405 466 36,000  Level FlightAware
07:03PM 49.9030 -101.4290 303° West 407 468 36,000  Level FlightAware
07:04PM 49.9440 -101.5270 303° West 408 470 36,000  Level FlightAware
07:05PM 49.9810 -101.6150 303° West 409 471 36,000  Level FlightAware
07:05PM 50.0340 -101.7410 303° West 409 471 36,000  Level FlightAware
07:06PM 50.0730 -101.8340 303° West 406 467 36,000 60 Level FlightAware
07:07PM 50.1090 -101.9230 302° West 406 467 36,100  Climbing FlightAware
07:07PM 50.1550 -102.0300 304° West 403 464 36,000 -120 Descending FlightAware
07:08PM 50.1950 -102.1300 302° West 403 464 36,000  Level FlightAware
07:09PM 50.2360 -102.2280 303° West 402 463 36,000  Level FlightAware
07:10PM 50.2860 -102.3500 303° West 401 461 36,000  Level FlightAware
07:10PM 50.3340 -102.4690 302° West 401 461 36,000  Level FlightAware
07:11PM 50.3260 -102.4470 120° Southeast 36,000  Level FlightAware
07:16PM 50.5260 -103.3120 290° West 403 464 36,000  Level FlightAware
07:17PM 50.5600 -103.4220 296° West 403 464 36,000  Level FlightAware
07:17PM 50.5940 -103.5290 297° West 406 467 36,000 60 Level FlightAware
07:18PM 50.6270 -103.6350 296° West 406 467 36,100 60 Climbing FlightAware
07:19PM 50.6600 -103.7410 296° West 407 468 36,100  Level FlightAware
07:19PM 50.7030 -103.8820 296° West 405 466 36,100 -120 Level FlightAware
07:20PM 50.7330 -103.9770 297° West 401 461 36,000 -120 Descending FlightAware
07:21PM 50.7770 -104.0880 302° West 397 457 36,000  Level FlightAware
07:21PM 50.8160 -104.1890 301° West 396 456 36,000  Level FlightAware
07:22PM 50.8590 -104.2960 303° West 394 453 36,000  Level FlightAware
07:23PM 50.8990 -104.3990 302° West 393 452 36,000  Level FlightAware
07:24PM 50.9410 -104.5070 302° West 393 452 36,000  Level FlightAware
07:24PM 50.9780 -104.6030 301° West 395 455 36,000  Level FlightAware
07:25PM 51.0230 -104.7200 301° West 397 457 36,000 60 Level FlightAware
07:26PM 51.0520 -104.7970 301° West 398 458 36,100 60 Climbing FlightAware
07:26PM 51.0960 -104.9100 302° West 399 459 36,100  Level FlightAware
07:27PM 51.1310 -105.0020 301° West 398 458 36,100 -120 Level FlightAware
07:28PM 51.1780 -105.1280 301° West 398 458 36,000 -60 Descending FlightAware
07:29PM 51.2340 -105.2730 302° West 397 457 36,000  Level FlightAware
07:29PM 51.2660 -105.3610 300° West 396 456 36,000  Level FlightAware
07:30PM 51.3090 -105.4740 301° West 395 455 36,000  Level FlightAware
07:31PM 51.3470 -105.5770 301° West 394 453 36,000  Level FlightAware
07:31PM 51.3840 -105.6770 301° West 394 453 36,000  Level FlightAware
07:33PM 51.4550 -105.8700 301° West 393 452 36,000  Level FlightAware
07:33PM 51.4940 -105.9760 301° West 392 451 36,000  Level FlightAware
07:34PM 51.5440 -106.1120 301° West 394 453 36,000  Level FlightAware
07:35PM 51.5730 -106.1940 300° West 394 453 36,000  Level FlightAware
07:36PM 51.6040 -106.2800 300° West 394 453 36,000  Level FlightAware
07:36PM 51.6530 -106.4140 301° West 394 453 36,000  Level FlightAware
07:37PM 51.6840 -106.5000 300° West 394 453 36,000  Level FlightAware
07:38PM 51.7140 -106.5870 299° West 394 453 36,000  Level FlightAware
07:38PM 51.7450 -106.6740 300° West 394 453 36,000  Level FlightAware
07:39PM 51.7840 -106.7820 300° West 394 453 36,000  Level FlightAware
07:40PM 51.8150 -106.8690 300° West 394 453 36,000  Level FlightAware
07:41PM 51.8460 -106.9560 300° West 394 453 36,000  Level FlightAware
07:41PM 51.8770 -107.0430 300° West 394 453 36,000  Level FlightAware
07:43PM 51.9410 -107.2210 300° West 394 453 36,000  Level FlightAware
07:43PM 51.9760 -107.3210 300° West 394 453 36,000  Level FlightAware
07:44PM 52.0070 -107.4090 300° West 394 453 36,000  Level FlightAware
07:45PM 52.0380 -107.4960 300° West 394 453 36,000  Level FlightAware
07:45PM 52.0690 -107.5830 300° West 394 453 36,000  Level FlightAware
07:46PM 52.1667 -107.9667 300° West 400 460 36,000  Level Winnipeg Center
07:47PM 52.2167 -108.1167 299° West 390 449 36,000  Level Winnipeg Center
07:48PM 52.2667 -108.2667 299° West 400 460 36,000  Level Winnipeg Center
07:49PM 52.3167 -108.4500 294° West 390 449 36,000  Level Winnipeg Center
07:49PM 52.3333 -108.4833 309° West 390 449 36,000  Level Edmonton Center
07:50PM 52.3833 -108.6167 302° West 390 449 36,000  Level Edmonton Center
07:51PM 52.4167 -108.7500 292° West 390 449 36,000  Level Winnipeg Center
07:52PM 52.4833 -108.9000 306° West 390 449 36,000  Level Winnipeg Center
07:52PM 52.4833 -108.9333 270° West 390 449 36,000  Level Edmonton Center
07:53PM 52.5333 -109.1000 296° West 390 449 36,000  Level Edmonton Center
07:54PM 52.6000 -109.2500 306° West 390 449 36,000  Level Edmonton Center
07:55PM 52.6333 -109.4000 290° West 390 449 36,000  Level Winnipeg Center
07:56PM 52.6833 -109.5500 299° West 390 449 36,000  Level Winnipeg Center
07:57PM 52.7333 -109.7000 299° West 400 460 36,000  Level Winnipeg Center
07:57PM 52.7500 -109.7333 310° West 390 449 36,000  Level Edmonton Center
07:58PM 52.7833 -109.8833 290° West 390 449 36,000  Level Edmonton Center
07:59PM 52.8333 -110.0333 299° West 390 449 36,000  Level Winnipeg Center
08:05PM 53.1440 -110.9550 299° West 391 450 36,000  Level FlightAware
08:06PM 53.1940 -111.1180 297° West 389 448 36,000  Level FlightAware
08:07PM 53.2310 -111.2450 296° West 386 444 36,000  Level FlightAware
08:07PM 53.2730 -111.3910 296° West 386 444 36,000  Level FlightAware
08:08PM 53.3010 -111.4850 297° West 385 443 36,000  Level FlightAware
08:09PM 53.3310 -111.5870 296° West 385 443 36,000  Level FlightAware
08:10PM 53.3690 -111.7190 296° West 385 443 36,000  Level FlightAware
08:10PM 53.3990 -111.8200 297° West 385 443 36,000  Level FlightAware
08:11PM 53.4370 -111.9550 295° West 387 445 36,000  Level FlightAware
08:12PM 53.4700 -112.0700 296° West 388 447 36,000  Level FlightAware
08:12PM 53.5040 -112.1910 295° West 390 449 36,000  Level FlightAware
08:13PM 53.5320 -112.2910 295° West 392 451 36,000  Level FlightAware
08:14PM 53.5640 -112.4020 296° West 396 456 36,000  Level FlightAware
08:14PM 53.5960 -112.5150 296° West 399 459 36,000 60 Level FlightAware
08:15PM 53.6310 -112.6430 295° West 403 464 36,100 60 Climbing FlightAware
08:16PM 53.6580 -112.7380 296° West 404 465 36,100 -120 Level FlightAware
08:16PM 53.6990 -112.8870 295° West 405 466 36,000 -120 Descending FlightAware
08:17PM 53.7270 -112.9910 295° West 403 464 36,000  Level FlightAware
08:18PM 53.7670 -113.1350 295° West 404 465 36,000  Level FlightAware
08:19PM 53.7970 -113.2480 294° West 403 464 36,000  Level FlightAware
08:19PM 53.8290 -113.3640 295° West 404 465 36,000  Level FlightAware
08:20PM 53.8600 -113.4800 294° West 404 465 36,000  Level FlightAware
08:21PM 53.8950 -113.6110 294° West 405 466 36,000  Level FlightAware
08:21PM 53.9250 -113.7250 294° West 405 466 36,000  Level FlightAware
08:22PM 53.9610 -113.8590 295° West 407 468 36,000  Level FlightAware
08:23PM 53.9920 -113.9800 294° West 408 470 36,000  Level FlightAware
08:23PM 54.0270 -114.1100 295° West 410 472 36,000  Level FlightAware
08:24PM 54.0570 -114.2290 293° West 411 473 36,000  Level FlightAware
08:25PM 54.0930 -114.3670 294° West 413 475 36,000  Level FlightAware
08:26PM 54.1230 -114.4840 294° West 414 476 36,000  Level FlightAware
08:26PM 54.1550 -114.6080 294° West 416 479 36,000  Level FlightAware
08:27PM 54.1890 -114.7420 293° West 420 483 36,000  Level FlightAware
08:28PM 54.2200 -114.8670 293° West 421 484 36,000  Level FlightAware
08:29PM 54.2620 -115.0310 294° West 420 483 36,000  Level FlightAware
08:29PM 54.2970 -115.1720 293° West 419 482 36,000  Level FlightAware
08:30PM 54.3230 -115.2780 293° West 418 481 36,000  Level FlightAware
08:31PM 54.3550 -115.4090 293° West 417 480 36,000  Level FlightAware
08:31PM 54.3840 -115.5310 292° West 417 480 36,000  Level FlightAware
08:32PM 54.4090 -115.6360 292° West 417 480 36,000  Level FlightAware
08:33PM 54.4500 -115.7960 294° West 36,000  Level FlightAware
08:33PM 54.4840 -115.9380 292° West 422 486 36,000  Level FlightAware
08:34PM 54.5180 -116.0780 293° West 426 490 36,000 60 Level FlightAware
08:35PM 54.5560 -116.2380 292° West 427 491 36,100  Climbing FlightAware
08:36PM 54.5990 -116.4190 292° West 432 497 36,100 -60 Level FlightAware
08:37PM 54.6340 -116.5730 291° West 432 497 36,000 -120 Descending FlightAware
08:38PM 54.6690 -116.7220 292° West 429 494 36,000  Level FlightAware
08:38PM 54.7030 -116.8720 291° West 426 490 36,000  Level FlightAware
08:39PM 54.7330 -116.9990 292° West 426 490 36,000  Level FlightAware
08:40PM 54.7560 -117.1080 290° West 425 489 36,000  Level FlightAware
08:40PM 54.7790 -117.2170 290° West 425 489 36,000  Level FlightAware
08:41PM 54.8020 -117.3260 290° West 425 489 36,000  Level FlightAware
08:42PM 54.8300 -117.4620 290° West 425 489 36,000  Level FlightAware
08:43PM 54.8530 -117.5720 290° West 425 489 36,000  Level FlightAware
08:43PM 54.8760 -117.6810 290° West 425 489 36,000  Level FlightAware
08:44PM 54.8990 -117.7900 290° West 425 489 36,000  Level FlightAware
08:45PM 54.9220 -117.8990 290° West 425 489 36,000  Level FlightAware
08:45PM 54.9500 -118.0360 290° West 425 489 36,000  Level FlightAware
08:46PM 54.9730 -118.1450 290° West 425 489 36,000  Level FlightAware
08:47PM 54.9960 -118.2550 290° West 425 489 36,000  Level FlightAware
08:47PM 55.0190 -118.3640 290° West 425 489 36,000  Level FlightAware
08:48PM 55.0420 -118.4740 290° West 425 489 36,000  Level FlightAware
08:49PM 55.0700 -118.6110 290° West 425 489 36,000  Level FlightAware
08:50PM 55.1833 -119.2000 290° West 430 495 36,000  Level Edmonton Center
08:51PM 55.2667 -119.4333 302° West 450 518 36,000  Level Edmonton Center
08:52PM 55.3333 -119.6167 303° West 440 506 36,000  Level Edmonton Center
08:53PM 55.3833 -119.8167 294° West 440 506 36,000  Level Edmonton Center
08:54PM 55.4333 -120.0000 296° West 440 506 36,000  Level Edmonton Center
08:55PM 55.5000 -120.2000 301° West 440 506 36,000  Level Edmonton Center
08:56PM 55.5667 -120.3833 303° West 440 506 36,000  Level Edmonton Center
08:57PM 55.6167 -120.5833 294° West 440 506 36,000  Level Edmonton Center
08:58PM 55.6833 -120.7667 303° West 450 518 36,000  Level Edmonton Center
08:59PM 55.7333 -120.9833 292° West 440 506 36,000  Level Edmonton Center
09:00PM 55.8000 -121.1500 305° West 440 506 36,000  Level Edmonton Center
09:01PM 55.8667 -121.3667 299° West 440 506 36,000  Level Edmonton Center
09:02PM 55.9167 -121.5500 296° West 440 506 36,000  Level Edmonton Center
09:03PM 55.9667 -121.7333 296° West 440 506 36,000  Level Edmonton Center
09:04PM 56.0333 -121.9500 299° West 440 506 36,000  Level Edmonton Center
09:05PM 56.0833 -122.1167 298° West 440 506 36,000  Level Edmonton Center
09:06PM 56.1333 -122.3333 293° West 440 506 36,000  Level Edmonton Center
09:07PM 56.2000 -122.5500 299° West 440 506 36,000  Level Edmonton Center
09:08PM 56.2500 -122.7333 296° West 440 506 36,000  Level Edmonton Center
09:09PM 56.3167 -122.9167 303° West 440 506 36,000  Level Edmonton Center
09:10PM 56.3667 -123.1333 293° West 440 506 36,000  Level Edmonton Center
09:11PM 56.4167 -123.3500 293° West 440 506 36,000  Level Edmonton Center
09:12PM 56.4833 -123.5500 301° West 440 506 36,000  Level Edmonton Center
09:13PM 56.5333 -123.7667 293° West 440 506 36,000  Level Edmonton Center
09:14PM 56.5833 -123.9500 296° West 450 518 36,000  Level Edmonton Center
09:15PM 56.6500 -124.1667 299° West 450 518 36,000  Level Edmonton Center
09:16PM 56.7000 -124.3833 293° West 450 518 36,000  Level Edmonton Center
09:17PM 56.7500 -124.5833 295° West 450 518 36,000  Level Edmonton Center
09:18PM 56.8000 -124.7667 297° West 450 518 36,000  Level Edmonton Center
09:19PM 56.8500 -124.9833 293° West 450 518 36,000 -60 Level Edmonton Center
09:20PM 56.9167 -125.1833 301° West 450 518 35,900  Descending Edmonton Center
09:21PM 56.9667 -125.4000 293° West 450 518 36,000  Climbing Edmonton Center
09:22PM 57.0167 -125.6333 292° West 450 518 36,000  Level Edmonton Center
09:24PM 57.0798 -125.8775 296° West  Level FlightAware Approximate
09:31PM 57.4272 -127.3035 294° West  Level FlightAware Approximate
09:32PM 57.4749 -127.5099 293° West  Level FlightAware Approximate
09:33PM 57.5223 -127.7168 293° West  Level FlightAware Approximate
09:34PM 57.5694 -127.9243 293° West  Level FlightAware Approximate
09:35PM 57.6161 -128.1322 293° West  Level FlightAware Approximate
09:36PM 57.6625 -128.3407 293° West  Level FlightAware Approximate
09:37PM 57.7086 -128.5498 292° West  Level FlightAware Approximate
09:38PM 57.7543 -128.7594 292° West  Level FlightAware Approximate
09:39PM 57.7996 -128.9695 292° West  Level FlightAware Approximate
09:40PM 57.8446 -129.1801 292° West  Level FlightAware Approximate
09:41PM 57.8893 -129.3913 292° West  Level FlightAware Approximate
09:42PM 57.9336 -129.6029 292° West  Level FlightAware Approximate
09:43PM 57.9775 -129.8151 291° West  Level FlightAware Approximate
09:44PM 58.0211 -130.0279 291° West  Level FlightAware Approximate
09:45PM 58.0644 -130.2411 291° West  Level FlightAware Approximate
09:46PM 58.1073 -130.4548 291° West  Level FlightAware Approximate
09:47PM 58.1498 -130.6691 291° West  Level FlightAware Approximate
09:48PM 58.1920 -130.8839 291° West  Level FlightAware Approximate
09:49PM 58.2337 -131.0992 290° West  Level FlightAware Approximate
09:50PM 58.2752 -131.3150 290° West  Level FlightAware Approximate
09:51PM 58.3163 -131.5312 290° West  Level FlightAware Approximate
09:52PM 58.3565 -131.7484 290° West  Level FlightAware Approximate
09:53PM 58.3963 -131.9660 289° West  Level FlightAware Approximate
09:54PM 58.4358 -132.1841 289° West  Level FlightAware Approximate
09:55PM 58.4748 -132.4027 289° West  Level FlightAware Approximate
09:56PM 58.5135 -132.6218 289° West  Level FlightAware Approximate
09:56PM 58.6167 -133.2333 285° West 490 564 36,000  Level Anchorage Center
09:57PM 58.5519 -132.8414 289° West  Level FlightAware Approximate
09:57PM 58.6500 -133.4833 284° West 480 552 36,000  Level Anchorage Center
09:58PM 58.5899 -133.0615 288° West  Level FlightAware Approximate
09:58PM 58.7000 -133.7167 292° West 480 552 36,000  Level Anchorage Center
09:59PM 58.6274 -133.2820 288° West  Level FlightAware Approximate
09:59PM 58.7333 -133.9667 285° West 490 564 36,000  Level Anchorage Center
10:00PM 58.6646 -133.5030 288° West  Level FlightAware Approximate
10:00PM 58.7667 -134.2167 285° West 490 564 36,000  Level Anchorage Center
10:01PM 58.7015 -133.7245 288° West  Level FlightAware Approximate
10:01PM 58.8167 -134.4667 291° West 490 564 36,000  Level Anchorage Center
10:02PM 58.7347 -133.9482 285° West  Level FlightAware Approximate
10:02PM 58.8500 -134.7167 285° West 490 564 36,000  Level Anchorage Center
10:03PM 58.8833 -134.9667 285° West 490 564 36,000  Level Anchorage Center
10:04PM 58.9333 -135.2167 291° West 490 564 36,000  Level Anchorage Center
10:05PM 58.9667 -135.4667 285° West 480 552 36,000  Level Anchorage Center
10:06PM 59.0000 -135.7000 286° West 470 541 36,000  Level Anchorage Center
10:07PM 59.0333 -135.9500 285° West 480 552 36,000  Level Anchorage Center
10:08PM 59.0667 -136.2000 285° West 480 552 36,000  Level Anchorage Center
10:09PM 59.1000 -136.4667 284° West 490 564 36,000  Level Anchorage Center
10:10PM 59.1500 -136.7167 291° West 490 564 36,000  Level Anchorage Center
10:11PM 59.1833 -136.9667 285° West 490 564 36,000  Level Anchorage Center
10:12PM 59.2167 -137.2333 284° West 490 564 36,000  Level Anchorage Center
10:13PM 59.2500 -137.4833 285° West 490 564 36,000  Level Anchorage Center
10:14PM 59.2833 -137.7500 284° West 480 552 36,000  Level Anchorage Center
10:15PM 59.3167 -138.0000 285° West 490 564 36,000  Level Anchorage Center
10:16PM 59.3500 -138.2667 284° West 480 552 36,000  Level Anchorage Center
10:17PM 59.3667 -138.5167 278° West 490 564 36,000  Level Anchorage Center
10:18PM 59.4000 -138.7833 284° West 490 564 36,000  Level Anchorage Center
10:19PM 59.4333 -139.0333 285° West 490 564 36,000  Level Anchorage Center
10:20PM 59.4667 -139.3000 284° West 490 564 36,000  Level Anchorage Center
10:21PM 59.4833 -139.5167 279° West 480 552 36,000  Level Anchorage Center
10:22PM 59.5333 -139.8333 287° West 490 564 36,000  Level Anchorage Center
10:23PM 59.5667 -140.0667 286° West 490 564 36,000  Level Anchorage Center
10:24PM 59.6167 -140.3167 292° West 490 564 36,000  Level Anchorage Center
10:25PM 59.6500 -140.5667 285° West 490 564 36,000  Level Anchorage Center
10:26PM 59.7000 -140.8333 290° West 490 564 36,000  Level Anchorage Center
10:27PM 59.7333 -141.0833 285° West 490 564 36,000  Level Anchorage Center
10:28PM 59.7833 -141.3500 291° West 490 564 36,000  Level Anchorage Center
10:29PM 59.8167 -141.6167 284° West 490 564 36,000  Level Anchorage Center
10:30PM 59.8667 -141.8667 292° West 490 564 36,000  Level Anchorage Center
10:31PM 59.9000 -142.1333 284° West 490 564 36,000  Level Anchorage Center
10:32PM 59.9333 -142.4000 284° West 500 575 36,000  Level Anchorage Center
10:33PM 59.9667 -142.6667 284° West 490 564 36,000  Level Anchorage Center
10:34PM 60.0167 -142.9167 292° West 490 564 36,000  Level Anchorage Center
10:35PM 60.0500 -143.1833 284° West 490 564 36,000  Level Anchorage Center
10:36PM 60.0833 -143.4833 283° West 500 575 36,000  Level Anchorage Center
10:37PM 60.1167 -143.7333 285° West 490 564 36,000  Level Anchorage Center
10:38PM 60.1667 -144.0000 291° West 490 564 36,000  Level Anchorage Center
10:39PM 60.2000 -144.2667 284° West 490 564 36,000  Level Anchorage Center
10:40PM 60.2333 -144.5500 283° West 490 564 36,000  Level Anchorage Center
10:41PM 60.2667 -144.8167 284° West 490 564 36,000  Level Anchorage Center
10:42PM 60.3000 -145.0833 284° West 490 564 36,000  Level Anchorage Center
10:43PM 60.3333 -145.3500 284° West 500 575 36,000  Level Anchorage Center
10:44PM 60.3667 -145.6167 284° West 490 564 36,000  Level Anchorage Center
10:45PM 60.4000 -145.8833 284° West 500 575 36,000 -360 Level Anchorage Center
10:51PM 60.6070 -147.3740 284° West 505 581 33,700 -420 Descending FlightAware
10:52PM 60.6300 -147.5290 287° West 505 581 33,700  Level FlightAware
10:52PM 60.6530 -147.6840 287° West 505 581 33,700  Level FlightAware
10:53PM 60.6820 -147.8780 287° West 505 581 33,700 -6,180 Level FlightAware
10:54PM 60.7260 -148.1340 289° West 457 526 24,500 -8,100 Descending FlightAware
10:54PM 60.7500 -148.2960 287° West 441 507 22,900 -2,400 Descending FlightAware
10:55PM 60.7770 -148.4730 287° West 430 495 21,100 -2,400 Descending FlightAware
10:56PM 60.7990 -148.6240 287° West 423 487 19,500 -2,400 Descending FlightAware
10:56PM 60.8210 -148.7750 287° West 413 475 17,900 -2,580 Descending FlightAware
10:57PM 60.8460 -148.9420 287° West 404 465 15,900 -2,580 Descending FlightAware
10:58PM 60.8660 -149.0880 286° West 395 455 14,300 -2,400 Descending FlightAware
10:59PM 60.8910 -149.2470 288° West 389 448 12,500 -1,920 Descending FlightAware
10:59PM 60.9190 -149.3790 294° West 363 418 11,600 -1,140 Descending FlightAware
11:00PM 60.9430 -149.5040 292° West 331 381 11,000 -1,020 Descending FlightAware
11:01PM 60.9680 -149.6300 292° West 309 356 10,200 -960 Descending FlightAware
11:01PM 60.9810 -149.6910 294° West 293 337 9,900 -660 Descending FlightAware
11:02PM 60.9960 -149.7710 291° West 280 322 9,600 -1,200 Descending FlightAware
11:02PM 61.0040 -149.8090 293° West 286 329 9,000 -1,740 Descending FlightAware
11:02PM 61.0190 -149.8870 292° West 285 328 8,300 -1,140 Descending FlightAware
11:03PM 61.0310 -149.9460 293° West 293 337 8,000 -360 Descending FlightAware
11:03PM 61.0460 -150.0240 292° West 293 337 8,000 -480 Level FlightAware
11:04PM 61.0590 -150.0890 292° West 293 337 7,600 -1,200 Descending FlightAware
11:04PM 61.0710 -150.1510 292° West 289 333 7,000 -1,020 Descending FlightAware
11:05PM 61.0890 -150.2430 292° West 270 311 6,600 -720 Descending FlightAware
11:05PM 61.1000 -150.3010 291° West 258 297 6,300 -780 Descending FlightAware
11:06PM 61.1130 -150.3660 293° West 244 281 5,900 -1,140 Descending FlightAware
11:06PM 61.1260 -150.4190 297° West 243 280 5,300 -1,380 Descending FlightAware
11:06PM 61.1390 -150.4340 331° Northwest 237 273 5,000 -1,440 Descending FlightAware
11:07PM 61.1560 -150.4330 North 227 261 4,600 -1,440 Descending FlightAware
11:07PM 61.1680 -150.4160 34° Northeast 218 251 4,300 -1,200 Descending FlightAware
11:07PM 61.1720 -150.3890 73° East 211 243 4,000 -1,680 Descending FlightAware
11:07PM 61.1690 -150.3370 97° East 211 243 3,200 -1,680 Descending FlightAware
11:08PM 61.1670 -150.2760 94° East 206 237 2,500 -1,380 Descending FlightAware
11:09PM 61.1670 -150.2060 90° East 171 197 1,600 -1,200 Descending FlightAware
11:09PM 61.1680 -150.1810 85° East 153 176 1,400 -780 Descending FlightAware
11:09PM 61.1680 -150.1490 90° East 152 175 1,100 -780 Descending FlightAware
11:10PM 61.1680 -150.1020 90° East 155 178 700 -840 Descending FlightAware
11:10PM 61.1680 -150.0780 90° East 154 177 500 -840 Descending FlightAware
11:11PM 61.1680 -150.0350 90° East 153 176 -1,020 Descending FlightAware